Terminal Aerodrome Forecast
Issued by NWS

Home | Current Version | Previous Version | Text Only | Print | Product List | Glossary On
Versions: 1 2 3 4 5 6 7 8 9 10 11 12 13 14 15
905
FTUS42 KJAX 101120
TAFVQQ
TAF
KVQQ 101120Z 1012/1112 36007KT P6SM FEW250
     FM101500 03010KT P6SM FEW030
     FM102300 02005KT P6SM SCT030
     FM110600 01004KT P6SM SCT015 BKN030=

USA.gov is the U.S. government's official web portal to all federal, state and local government web resources and services.